createdAt,value
2023-05-15T00:01:42.920Z,9.70
2023-05-15T00:04:45.937Z,11.77
2023-05-15T00:07:49.915Z,8.70
2023-05-15T00:11:00.934Z,9.97
2023-05-15T00:14:05.570Z,10.50
2023-05-15T00:17:14.572Z,9.53
2023-05-15T00:20:17.196Z,9.63
2023-05-15T00:23:23.371Z,10.30
2023-05-15T00:26:26.186Z,9.80
2023-05-15T00:29:29.067Z,8.83
2023-05-15T00:32:31.785Z,9.40
2023-05-15T00:35:37.508Z,11.37
2023-05-15T00:38:41.882Z,11.43
2023-05-15T00:41:46.143Z,10.73
2023-05-15T00:44:49.914Z,13.57
2023-05-15T00:47:54.160Z,11.40
2023-05-15T00:50:58.348Z,10.37
2023-05-15T00:54:03.400Z,11.53
2023-05-15T00:57:09.631Z,10.50
2023-05-15T01:00:16.761Z,9.60
2023-05-15T01:03:19.977Z,11.63
2023-05-15T01:06:22.988Z,11.27
2023-05-15T01:09:31.508Z,10.70
2023-05-15T01:12:36.971Z,10.77
2023-05-15T01:15:39.693Z,10.30
2023-05-15T01:18:44.791Z,9.80
2023-05-15T01:22:16.640Z,8.90
2023-05-15T01:25:57.524Z,9.27
2023-05-15T01:29:06.511Z,10.33
2023-05-15T01:32:12.999Z,9.90
2023-05-15T01:35:22.403Z,9.90
2023-05-15T01:38:31.662Z,9.10
2023-05-15T01:41:42.580Z,9.37
2023-05-15T01:44:54.617Z,9.20
2023-05-15T01:47:58.884Z,9.80
2023-05-15T01:51:04.495Z,11.33
2023-05-15T01:54:09.252Z,10.40
2023-05-15T01:57:13.019Z,11.37
2023-05-15T02:00:18.786Z,11.37
2023-05-15T02:03:21.845Z,13.00
2023-05-15T02:06:26.174Z,10.03
2023-05-15T02:09:29.782Z,9.83
2023-05-15T02:12:33.876Z,15.73
2023-05-15T02:15:38.888Z,10.00
2023-05-15T02:18:44.863Z,11.97
2023-05-15T02:21:47.588Z,9.50
2023-05-15T02:24:50.265Z,9.77
2023-05-15T02:27:58.576Z,11.07
2023-05-15T02:31:09.252Z,11.47
2023-05-15T02:34:22.757Z,11.17
2023-05-15T02:37:29.751Z,11.20
2023-05-15T02:40:34.313Z,11.60
2023-05-15T02:43:37.594Z,12.40
2023-05-15T02:46:42.701Z,12.87
2023-05-15T02:49:46.268Z,11.30
2023-05-15T02:52:48.996Z,11.47
2023-05-15T02:55:52.045Z,11.50
2023-05-15T02:58:55.111Z,12.70
2023-05-15T03:02:00.039Z,11.50
2023-05-15T03:05:08.648Z,13.77
2023-05-15T03:08:11.356Z,13.40
2023-05-15T03:11:14.383Z,15.77
2023-05-15T03:14:19.703Z,17.40
2023-05-15T03:17:23.732Z,14.50
2023-05-15T03:20:26.432Z,20.40
2023-05-15T03:23:29.121Z,32.60
2023-05-15T03:26:31.787Z,29.33
2023-05-15T03:29:40.647Z,30.83
2023-05-15T03:32:44.823Z,29.53
2023-05-15T03:35:51.216Z,25.77
2023-05-15T03:38:53.903Z,23.07
2023-05-15T03:41:56.585Z,20.17
2023-05-15T03:44:59.329Z,25.10
2023-05-15T03:48:03.717Z,20.57
2023-05-15T03:51:06.559Z,18.67
2023-05-15T03:54:09.888Z,15.30
2023-05-15T03:57:13.541Z,16.00
2023-05-15T04:00:18.470Z,19.47
2023-05-15T04:03:24.306Z,20.07
2023-05-15T04:06:27.234Z,27.53
2023-05-15T04:09:29.991Z,22.33
2023-05-15T04:12:35.819Z,20.50
2023-05-15T04:15:38.548Z,18.07
2023-05-15T04:18:42.719Z,17.50
2023-05-15T04:21:45.652Z,17.63
2023-05-15T04:24:48.344Z,14.53
2023-05-15T04:27:51.094Z,18.33
2023-05-15T04:30:53.743Z,12.70
2023-05-15T04:33:57.748Z,16.20
2023-05-15T04:37:02.088Z,11.87
2023-05-15T04:40:06.513Z,26.63
2023-05-15T04:43:09.335Z,18.13
2023-05-15T04:46:12.105Z,15.50
2023-05-15T04:49:16.609Z,16.83
2023-05-15T04:52:19.451Z,26.73
2023-05-15T04:55:22.348Z,15.83
2023-05-15T04:58:25.471Z,12.67
2023-05-15T05:01:28.196Z,8.80
2023-05-15T05:04:32.253Z,10.87
2023-05-15T05:07:35.636Z,11.17
2023-05-15T05:10:38.340Z,9.77
2023-05-15T05:13:41.990Z,15.10
2023-05-15T05:16:45.683Z,8.87
2023-05-15T05:19:49.736Z,7.80
2023-05-15T05:22:52.500Z,7.17
2023-05-15T05:25:55.204Z,7.87
2023-05-15T05:28:57.946Z,7.40
2023-05-15T05:32:01.411Z,8.93
2023-05-15T05:35:06.446Z,6.07
2023-05-15T05:38:09.212Z,6.03
2023-05-15T05:41:11.918Z,8.80
2023-05-15T05:44:14.621Z,6.37
2023-05-15T05:47:17.486Z,7.77
2023-05-15T05:50:21.695Z,7.77
2023-05-15T05:53:24.381Z,10.67
2023-05-15T05:56:27.303Z,7.93
2023-05-15T05:59:30.091Z,10.30
2023-05-15T06:02:32.846Z,7.90
2023-05-15T06:05:37.191Z,9.47
2023-05-15T06:08:40.052Z,7.93
2023-05-15T06:11:42.772Z,10.43
2023-05-15T06:14:45.477Z,9.23
2023-05-15T06:17:51.140Z,7.17
2023-05-15T06:20:55.228Z,6.47
2023-05-15T06:23:57.887Z,8.33
2023-05-15T06:27:01.090Z,12.43
2023-05-15T06:30:10.707Z,5.47
2023-05-15T06:33:13.485Z,8.80
2023-05-15T06:36:17.580Z,7.10
2023-05-15T06:39:20.235Z,6.73
2023-05-15T06:42:23.132Z,8.07
2023-05-15T06:45:27.407Z,6.13
2023-05-15T06:48:30.526Z,6.80
2023-05-15T06:51:34.577Z,8.30
2023-05-15T06:54:37.575Z,8.67
2023-05-15T06:57:40.449Z,7.40
2023-05-15T07:00:43.232Z,9.40
2023-05-15T07:03:45.897Z,6.60
2023-05-15T07:06:50.362Z,8.13
2023-05-15T07:09:53.055Z,8.23
2023-05-15T07:12:55.787Z,5.90
2023-05-15T07:15:58.511Z,8.83
2023-05-15T07:19:01.727Z,7.60
2023-05-15T07:22:06.225Z,8.80
2023-05-15T07:25:11.852Z,6.33
2023-05-15T07:28:14.619Z,8.27
2023-05-15T07:31:17.351Z,10.03
2023-05-15T07:34:20.200Z,6.37
2023-05-15T07:37:24.852Z,6.57
2023-05-15T07:40:27.704Z,8.73
2023-05-15T07:43:30.432Z,6.93
2023-05-15T07:46:33.265Z,5.90
2023-05-15T07:49:38.133Z,7.07
2023-05-15T07:52:45.252Z,7.37
2023-05-15T07:55:47.928Z,5.90
2023-05-15T07:58:50.702Z,7.23
2023-05-15T08:01:53.976Z,6.23
2023-05-15T08:04:56.662Z,14.93
2023-05-15T08:08:02.244Z,7.60
2023-05-15T08:11:09.900Z,6.77
2023-05-15T08:14:13.960Z,5.73
2023-05-15T08:17:17.041Z,7.20
2023-05-15T08:20:20.917Z,6.13
2023-05-15T08:23:25.122Z,6.47
2023-05-15T08:26:27.816Z,7.77
2023-05-15T08:29:30.523Z,6.17
2023-05-15T08:32:35.179Z,6.30
2023-05-15T08:35:41.223Z,7.33
2023-05-15T08:38:45.323Z,9.63
2023-05-15T08:41:54.398Z,6.63
2023-05-15T08:44:57.459Z,11.10
2023-05-15T08:48:03.282Z,8.90
2023-05-15T08:51:10.198Z,8.07
2023-05-15T08:54:14.412Z,8.67
2023-05-15T08:57:18.636Z,5.10
2023-05-15T09:00:22.996Z,8.77
2023-05-15T09:03:25.988Z,7.27
2023-05-15T09:06:29.256Z,5.67
2023-05-15T09:09:35.312Z,6.40
2023-05-15T09:12:43.046Z,7.60
2023-05-15T09:15:46.717Z,6.30
2023-05-15T09:18:50.911Z,7.70
2023-05-15T09:21:53.699Z,6.13
2023-05-15T09:24:58.204Z,4.93
2023-05-15T09:28:01.046Z,4.00
2023-05-15T09:31:05.665Z,4.00
2023-05-15T09:34:10.212Z,5.57
2023-05-15T09:37:29.423Z,4.87
2023-05-15T09:40:33.556Z,6.47
2023-05-15T09:43:38.825Z,6.30
2023-05-15T09:46:41.651Z,5.17
2023-05-15T09:49:45.684Z,4.87
2023-05-15T09:52:48.542Z,5.90
2023-05-15T09:55:54.056Z,7.43
2023-05-15T09:58:58.240Z,4.97
2023-05-15T10:02:00.985Z,3.63
2023-05-15T10:05:04.506Z,4.70
2023-05-15T10:08:10.225Z,5.47
2023-05-15T10:11:14.486Z,3.97
2023-05-15T10:14:19.547Z,7.43
2023-05-15T10:17:22.338Z,9.63
2023-05-15T10:20:26.978Z,6.73
2023-05-15T10:23:32.242Z,7.40
2023-05-15T10:26:41.465Z,5.07
2023-05-15T10:29:45.154Z,5.50
2023-05-15T10:32:49.970Z,5.47
2023-05-15T10:35:53.150Z,7.13
2023-05-15T10:38:55.968Z,4.40
2023-05-15T10:42:01.187Z,6.17
2023-05-15T10:45:09.900Z,4.83
2023-05-15T10:48:13.529Z,4.77
2023-05-15T10:51:17.436Z,5.40
2023-05-15T10:54:20.399Z,4.50
2023-05-15T10:57:24.703Z,5.97
2023-05-15T11:00:29.270Z,8.00
2023-05-15T11:03:48.890Z,4.97
2023-05-15T11:07:13.050Z,5.10
2023-05-15T11:10:37.657Z,7.13
2023-05-15T11:14:14.403Z,7.93
2023-05-15T11:17:17.695Z,5.83
2023-05-15T11:20:20.503Z,5.00
2023-05-15T11:23:24.715Z,4.30
2023-05-15T11:26:34.059Z,7.17
2023-05-15T11:29:38.111Z,11.90
2023-05-15T11:32:56.371Z,5.87
2023-05-15T11:36:01.165Z,6.40
2023-05-15T11:39:11.241Z,4.67
2023-05-15T11:42:14.892Z,6.27
2023-05-15T11:45:19.156Z,4.57
2023-05-15T11:48:24.822Z,6.10
2023-05-15T11:51:30.147Z,5.90
2023-05-15T11:54:33.466Z,6.53
2023-05-15T11:57:39.218Z,4.90
2023-05-15T12:00:44.508Z,4.50
2023-05-15T12:03:49.113Z,5.33
2023-05-15T12:06:52.565Z,5.87
2023-05-15T12:09:55.757Z,6.17
2023-05-15T12:12:59.778Z,3.87
2023-05-15T12:16:05.213Z,5.60
2023-05-15T12:19:08.266Z,6.60
2023-05-15T12:22:11.207Z,6.57
2023-05-15T12:25:17.759Z,4.67
2023-05-15T12:28:20.681Z,6.73
2023-05-15T12:31:24.988Z,5.47
2023-05-15T12:34:27.929Z,4.07
2023-05-15T12:37:33.621Z,13.40
2023-05-15T12:40:37.812Z,5.77
2023-05-15T12:43:41.244Z,5.70
2023-05-15T12:46:46.257Z,5.23
2023-05-15T12:49:48.994Z,6.83
2023-05-15T12:52:53.220Z,4.33
2023-05-15T12:55:55.993Z,3.40
2023-05-15T12:58:59.222Z,5.47
2023-05-15T13:02:03.425Z,5.47
2023-05-15T13:05:07.210Z,2.93
2023-05-15T13:08:10.109Z,4.67
2023-05-15T13:11:14.617Z,9.97
2023-05-15T13:14:19.532Z,2.73
2023-05-15T13:17:23.615Z,2.90
2023-05-15T13:20:26.676Z,3.07
2023-05-15T13:23:29.668Z,3.37
2023-05-15T13:26:32.492Z,5.33
2023-05-15T13:29:35.676Z,4.07
2023-05-15T13:32:39.849Z,4.77
2023-05-15T13:35:43.257Z,5.77
2023-05-15T13:39:06.584Z,4.03
2023-05-15T13:42:09.369Z,6.57
2023-05-15T13:45:14.544Z,3.77
2023-05-15T13:48:19.736Z,6.13
2023-05-15T13:51:22.497Z,2.77
2023-05-15T13:54:25.359Z,4.47
2023-05-15T13:57:28.042Z,5.03
2023-05-15T14:00:30.785Z,3.20
2023-05-15T14:03:35.138Z,8.57
2023-05-15T14:06:38.188Z,7.50
2023-05-15T14:09:41.151Z,5.23
2023-05-15T14:12:44.224Z,6.80
2023-05-15T14:15:47.126Z,7.13
2023-05-15T14:18:51.138Z,6.87
2023-05-15T14:21:54.005Z,5.13
2023-05-15T14:24:56.845Z,6.43
2023-05-15T14:27:59.783Z,8.37
2023-05-15T14:31:02.546Z,6.63
2023-05-15T14:34:07.037Z,6.77
2023-05-15T14:37:09.989Z,9.03
2023-05-15T14:40:13.618Z,8.43
2023-05-15T14:43:16.625Z,9.07
2023-05-15T14:46:20.368Z,7.60
2023-05-15T14:49:25.394Z,7.33
2023-05-15T14:52:29.146Z,7.10
2023-05-15T14:55:34.176Z,10.53
2023-05-15T14:58:37.588Z,6.27
2023-05-15T15:01:40.720Z,7.17
2023-05-15T15:04:45.075Z,5.20
2023-05-15T15:08:02.657Z,6.83
2023-05-15T15:11:06.552Z,6.43
2023-05-15T15:14:09.678Z,5.23
2023-05-15T15:17:12.883Z,5.10
2023-05-15T15:20:27.002Z,5.17
2023-05-15T15:23:32.472Z,8.30
2023-05-15T15:26:35.538Z,5.07
2023-05-15T15:29:38.453Z,5.77
2023-05-15T15:32:42.381Z,4.83
2023-05-15T15:35:48.255Z,8.50
2023-05-15T15:38:51.303Z,6.97
2023-05-15T15:41:54.556Z,6.67
2023-05-15T15:44:59.443Z,6.47
2023-05-15T15:48:02.380Z,6.33
2023-05-15T15:51:07.195Z,10.10
2023-05-15T15:54:10.540Z,9.33
2023-05-15T16:01:06.400Z,6.83
2023-05-15T16:04:45.195Z,4.40
2023-05-15T16:08:17.759Z,6.63
2023-05-15T16:11:44.190Z,5.70
2023-05-15T16:15:21.050Z,6.23
2023-05-15T16:18:55.377Z,8.07
2023-05-15T16:22:03.602Z,5.30
2023-05-15T16:25:45.391Z,7.90
2023-05-15T16:28:56.956Z,7.03
2023-05-15T16:32:12.943Z,7.27
2023-05-15T16:35:41.808Z,7.80
2023-05-15T16:39:31.483Z,7.37
2023-05-15T16:42:52.719Z,6.87
2023-05-15T16:45:55.589Z,7.47
2023-05-15T16:48:58.282Z,6.83
2023-05-15T16:52:01.332Z,8.17
2023-05-15T16:55:04.452Z,5.63
2023-05-15T16:58:08.629Z,6.53
2023-05-15T17:01:11.448Z,5.30
2023-05-15T17:04:14.162Z,5.87
2023-05-15T17:07:16.835Z,5.47
2023-05-15T17:10:19.703Z,9.33
2023-05-15T17:13:25.110Z,5.57
2023-05-15T17:16:29.364Z,8.87
2023-05-15T17:19:34.295Z,6.60
2023-05-15T17:22:37.183Z,6.20
2023-05-15T17:25:39.840Z,5.43
2023-05-15T17:28:43.837Z,6.17
2023-05-15T17:31:47.280Z,6.17
2023-05-15T17:34:51.481Z,5.03
2023-05-15T17:37:54.217Z,6.20
2023-05-15T17:40:56.922Z,6.57
2023-05-15T17:44:01.028Z,7.37
2023-05-15T17:47:03.772Z,8.07
2023-05-15T17:50:07.709Z,5.57
2023-05-15T17:53:10.454Z,6.80
2023-05-15T17:56:13.334Z,6.60
2023-05-15T17:59:17.549Z,5.00
2023-05-15T18:02:20.271Z,4.73
2023-05-15T18:05:23.842Z,6.63
2023-05-15T18:08:27.307Z,4.63
2023-05-15T18:11:30.090Z,6.63
2023-05-15T18:14:34.284Z,9.83
2023-05-15T18:17:37.098Z,5.73
2023-05-15T18:20:39.865Z,5.60
2023-05-15T18:23:42.781Z,6.20
2023-05-15T18:26:45.557Z,6.70
2023-05-15T18:29:49.767Z,7.40
2023-05-15T18:32:52.594Z,10.23
2023-05-15T18:35:55.668Z,6.10
2023-05-15T18:38:58.410Z,6.37
2023-05-15T18:42:01.262Z,4.70
2023-05-15T18:45:06.155Z,5.37
2023-05-15T18:48:09.166Z,5.60
2023-05-15T18:51:12.076Z,5.83
2023-05-15T18:54:14.884Z,7.00
2023-05-15T18:57:17.739Z,8.60
2023-05-15T19:00:34.033Z,4.83
2023-05-15T19:03:41.050Z,6.67
2023-05-15T19:06:44.275Z,5.53
2023-05-15T19:09:47.001Z,5.23
2023-05-15T19:12:49.721Z,9.53
2023-05-15T19:15:56.769Z,7.57
2023-05-15T19:19:00.268Z,7.43
2023-05-15T19:22:03.480Z,9.57
2023-05-15T19:25:07.198Z,6.27
2023-05-15T19:28:12.213Z,7.50
2023-05-15T19:31:27.892Z,6.50
2023-05-15T19:34:33.888Z,11.17
2023-05-15T19:37:36.639Z,7.17
2023-05-15T19:40:46.827Z,9.63
2023-05-15T19:43:50.928Z,8.77
2023-05-15T19:46:55.269Z,7.10
2023-05-15T19:49:58.004Z,6.63
2023-05-15T19:53:01.004Z,7.87
2023-05-15T19:56:03.983Z,9.27
2023-05-15T19:59:06.765Z,7.37
2023-05-15T20:02:11.252Z,7.80
2023-05-15T20:05:14.837Z,9.77
2023-05-15T20:08:17.676Z,11.40
2023-05-15T20:11:21.154Z,7.77
2023-05-15T20:14:24.040Z,8.43
2023-05-15T20:17:28.934Z,13.60
2023-05-15T20:20:31.876Z,8.37
2023-05-15T20:23:34.716Z,8.63
2023-05-15T20:26:37.580Z,10.50
2023-05-15T20:29:43.564Z,10.20
2023-05-15T20:32:47.678Z,11.03
2023-05-15T20:35:51.464Z,10.20
2023-05-15T20:38:55.076Z,9.03
2023-05-15T20:41:57.791Z,9.30
2023-05-15T20:45:00.473Z,8.63
2023-05-15T20:48:06.911Z,7.77
2023-05-15T20:51:09.576Z,10.53
2023-05-15T20:54:12.269Z,11.33
2023-05-15T20:57:15.097Z,11.90
2023-05-15T21:00:18.938Z,9.93
2023-05-15T21:03:23.027Z,12.30
2023-05-15T21:06:25.977Z,10.07
2023-05-15T21:09:28.932Z,9.97
2023-05-15T21:12:32.473Z,11.67
2023-05-15T21:15:35.147Z,13.43
2023-05-15T21:18:39.507Z,13.90
2023-05-15T21:21:42.158Z,9.77
2023-05-15T21:24:45.111Z,11.60
2023-05-15T21:27:47.811Z,11.17
2023-05-15T21:30:50.557Z,12.70
2023-05-15T21:33:55.903Z,11.60
2023-05-15T21:36:58.649Z,13.17
2023-05-15T21:40:01.786Z,13.93
2023-05-15T21:43:04.939Z,16.40
2023-05-15T21:46:07.862Z,12.27
2023-05-15T21:49:12.352Z,14.73
2023-05-15T21:52:15.436Z,11.53
2023-05-15T21:55:18.500Z,12.37
2023-05-15T21:58:23.760Z,13.67
2023-05-15T22:01:26.502Z,14.53
2023-05-15T22:04:30.701Z,15.17
2023-05-15T22:07:33.613Z,15.03
2023-05-15T22:10:36.489Z,10.40
2023-05-15T22:13:39.152Z,13.10
2023-05-15T22:16:42.821Z,13.37
2023-05-15T22:19:47.263Z,10.70
2023-05-15T22:22:50.060Z,15.80
2023-05-15T22:25:57.977Z,15.13
2023-05-15T22:29:00.696Z,12.50
2023-05-15T22:32:03.814Z,14.00
2023-05-15T22:35:09.671Z,15.03
2023-05-15T22:38:12.438Z,13.17
2023-05-15T22:41:18.312Z,12.90
2023-05-15T22:44:21.041Z,21.17
2023-05-15T22:47:23.828Z,18.07
2023-05-15T22:50:31.616Z,17.03
2023-05-15T22:53:34.644Z,20.47
2023-05-15T22:56:40.425Z,18.37
2023-05-15T22:59:45.491Z,18.77
2023-05-15T23:02:48.231Z,17.47
2023-05-15T23:05:53.127Z,24.87
2023-05-15T23:08:55.971Z,18.90
2023-05-15T23:11:58.648Z,20.43
2023-05-15T23:15:02.080Z,18.80
2023-05-15T23:18:05.521Z,19.57
2023-05-15T23:21:12.778Z,17.73
2023-05-15T23:24:16.143Z,21.13
2023-05-15T23:27:18.858Z,17.20
2023-05-15T23:30:21.925Z,18.03
2023-05-15T23:33:24.592Z,20.37
2023-05-15T23:36:28.624Z,18.53
2023-05-15T23:39:31.829Z,18.47
2023-05-15T23:42:34.636Z,19.03
2023-05-15T23:45:37.743Z,20.87
2023-05-15T23:48:40.578Z,21.57
2023-05-15T23:51:44.631Z,19.97
2023-05-15T23:54:47.507Z,21.63
2023-05-15T23:57:50.412Z,19.03
